エカテリンブルク の空港の天気 - METARとTAF

コルツォヴォ空港 ( USSS / SVX ) - ロシア エカテリンブルク
飛行場実況気象(Metar)
観測時間04/21 05:00 YEKT (04/21 00:00 UTC)
風向・風速北 4m/s
視程10km以上
天気現象
少しの雲 雲底高度 610m
気温-4℃
湿度93%
気圧1003hPa
METARUSSS 210000Z 36004MPS 9999 FEW020 M04/M05 Q1003 R26R/290337 NOSIG RMK QFE732/0976
過去の天気等 Google飛行場航空写真 Wunderground天気予報

過去48時間のMETAR

飛行場予報(TAF)
発表時間: 4/21 04:00 YEKT (4/20 23:00 UTC)
予報対象時間: 21日5時 YEKT ~ 22日5時 YEKT
風向・風速北 5m/s
視程5,000m
天気現象弱いしゅう雪
全天の4割程度の雲 雲底高度 340m
全天の4割程度の積乱雲 雲底高度 460m
21日10時 YEKT ~ 21日12時 YEKT に徐々に
視程10km以上
全天の4割程度の積乱雲 雲底高度 610m
21日19時 YEKT から
風向・風速東 3m/s
視程5,000m
天気現象もや
全天の4割程度の雲 雲底高度 460m
TAF USSS 202300Z 2100/2124 35005MPS 5000 -SHSN SCT011 SCT015CB
BECMG 2105/2107 9999 SCT020CB
FM211400 09003MPS 5000 BR SCT015